createdAt,value
2019-02-22T00:01:45.950Z,27.33
2019-02-22T00:04:14.883Z,27.77
2019-02-22T00:06:43.705Z,27.63
2019-02-22T00:09:12.925Z,28.23
2019-02-22T00:11:42.073Z,28.33
2019-02-22T00:14:11.106Z,28.03
2019-02-22T00:16:43.917Z,28.93
2019-02-22T00:19:13.066Z,28.00
2019-02-22T00:21:41.962Z,28.13
2019-02-22T00:24:14.164Z,28.20
2019-02-22T00:26:43.179Z,28.33
2019-02-22T00:29:13.668Z,27.73
2019-02-22T00:31:44.462Z,27.03
2019-02-22T00:34:13.691Z,28.27
2019-02-22T00:36:44.509Z,28.33
2019-02-22T00:39:17.274Z,27.83
2019-02-22T00:41:46.210Z,25.37
2019-02-22T00:44:15.331Z,26.30
2019-02-22T00:46:44.326Z,26.27
2019-02-22T00:49:27.595Z,26.30
2019-02-22T00:51:56.715Z,25.00
2019-02-22T00:54:25.719Z,25.23
2019-02-22T00:56:55.154Z,25.47
2019-02-22T00:59:24.121Z,25.37
2019-02-22T01:01:53.039Z,24.50
2019-02-22T01:04:23.682Z,23.80
2019-02-22T01:06:52.613Z,23.60
2019-02-22T01:09:21.612Z,24.57
2019-02-22T01:11:50.568Z,23.27
2019-02-22T01:14:19.546Z,22.90
2019-02-22T01:16:49.240Z,22.60
2019-02-22T01:19:18.442Z,22.80
2019-02-22T01:24:22.243Z,23.37
2019-02-22T01:26:51.315Z,22.97
2019-02-22T01:29:20.267Z,22.57
2019-02-22T01:31:49.766Z,22.00
2019-02-22T01:34:18.757Z,22.30
2019-02-22T01:36:47.658Z,21.57
2019-02-22T01:39:17.430Z,22.57
2019-02-22T01:41:49.924Z,23.47
2019-02-22T01:44:22.621Z,22.43
2019-02-22T01:46:54.052Z,21.43
2019-02-22T01:49:23.030Z,21.87
2019-02-22T01:51:52.529Z,20.73
2019-02-22T01:54:23.713Z,23.37
2019-02-22T01:56:52.570Z,22.00
2019-02-22T01:59:21.449Z,21.60
2019-02-22T02:01:50.483Z,21.63
2019-02-22T02:04:19.450Z,21.63
2019-02-22T02:06:48.355Z,20.60
2019-02-22T02:09:17.267Z,20.37
2019-02-22T02:11:46.495Z,20.00
2019-02-22T02:14:15.347Z,21.00
2019-02-22T02:16:44.207Z,20.03
2019-02-22T02:19:13.171Z,20.07
2019-02-22T02:21:42.162Z,20.93
2019-02-22T02:24:11.081Z,21.67
2019-02-22T02:26:40.884Z,20.00
2019-02-22T02:29:10.123Z,21.17
2019-02-22T02:31:39.064Z,20.57
2019-02-22T02:38:19.054Z,21.57
2019-02-22T02:40:48.822Z,20.97
2019-02-22T02:43:17.748Z,21.30
2019-02-22T02:45:46.718Z,22.37
2019-02-22T02:48:15.803Z,23.20
2019-02-22T02:50:44.738Z,22.17
2019-02-22T02:53:13.725Z,23.03
2019-02-22T02:55:43.013Z,22.50
2019-02-22T02:58:12.801Z,21.10
2019-02-22T03:00:41.734Z,23.13
2019-02-22T03:03:10.992Z,22.03
2019-02-22T03:05:59.459Z,22.87
2019-02-22T03:08:32.413Z,22.37
2019-02-22T03:11:03.406Z,23.67
2019-02-22T03:13:32.714Z,24.20
2019-02-22T03:16:03.179Z,23.57
2019-02-22T03:18:32.358Z,23.60
2019-02-22T03:21:01.272Z,23.70
2019-02-22T03:23:30.083Z,23.97
2019-02-22T03:25:58.976Z,24.53
2019-02-22T03:28:27.982Z,25.33
2019-02-22T03:30:57.114Z,24.10
2019-02-22T03:33:30.277Z,24.17
2019-02-22T03:35:59.959Z,25.37
2019-02-22T03:38:29.246Z,24.57
2019-02-22T03:40:58.342Z,25.13
2019-02-22T03:43:27.259Z,24.47
2019-02-22T03:45:56.198Z,25.43
2019-02-22T03:48:25.954Z,24.77
2019-02-22T03:50:54.768Z,25.03
2019-02-22T03:53:32.103Z,24.93
2019-02-22T03:56:01.599Z,24.67
2019-02-22T03:58:30.490Z,26.27
2019-02-22T04:00:59.675Z,24.57
2019-02-22T04:03:28.650Z,24.97
2019-02-22T04:05:57.869Z,25.27
2019-02-22T04:08:26.769Z,24.97
2019-02-22T04:10:55.739Z,25.13
2019-02-22T04:13:24.549Z,26.33
2019-02-22T04:15:53.544Z,25.77
2019-02-22T04:18:22.412Z,24.43
2019-02-22T04:20:51.603Z,25.90
2019-02-22T04:23:20.489Z,25.60
2019-02-22T04:25:51.362Z,24.27
2019-02-22T04:28:20.275Z,25.57
2019-02-22T04:30:49.109Z,25.53
2019-02-22T04:33:18.009Z,24.53
2019-02-22T04:35:46.945Z,25.03
2019-02-22T04:38:15.776Z,25.03
2019-02-22T04:40:44.649Z,24.70
2019-02-22T04:43:13.644Z,25.40
2019-02-22T04:45:42.551Z,26.47
2019-02-22T04:48:11.413Z,24.83
2019-02-22T04:50:42.062Z,25.80
2019-02-22T04:53:11.516Z,26.10
2019-02-22T04:55:40.442Z,26.37
2019-02-22T04:58:09.334Z,24.73
2019-02-22T05:00:38.255Z,25.63
2019-02-22T05:03:07.168Z,25.83
2019-02-22T05:05:36.097Z,26.27
2019-02-22T05:08:04.983Z,27.13
2019-02-22T05:10:35.555Z,27.50
2019-02-22T05:13:04.467Z,27.47
2019-02-22T05:15:35.723Z,25.67
2019-02-22T05:18:04.707Z,27.20
2019-02-22T05:20:35.134Z,25.47
2019-02-22T05:23:07.344Z,26.70
2019-02-22T05:25:35.081Z,25.73
2019-02-22T05:28:04.429Z,25.40
2019-02-22T05:30:36.451Z,26.13
2019-02-22T05:33:04.976Z,27.07
2019-02-22T05:35:34.682Z,24.80
2019-02-22T05:38:04.534Z,26.33
2019-02-22T05:40:34.987Z,25.10
2019-02-22T05:43:04.296Z,24.63
2019-02-22T05:45:33.564Z,25.57
2019-02-22T05:48:02.821Z,25.27
2019-02-22T05:50:32.008Z,23.63
2019-02-22T05:53:00.934Z,23.40
2019-02-22T05:55:30.056Z,24.57
2019-02-22T05:57:59.013Z,24.67
2019-02-22T06:00:27.997Z,24.77
2019-02-22T06:02:59.137Z,24.73
2019-02-22T06:05:29.046Z,25.17
2019-02-22T06:07:59.947Z,24.57
2019-02-22T06:10:29.845Z,25.80
2019-02-22T06:12:58.808Z,23.83
2019-02-22T06:15:28.035Z,24.43
2019-02-22T06:17:56.847Z,24.20
2019-02-22T06:20:26.010Z,24.80
2019-02-22T06:22:54.881Z,23.50
2019-02-22T06:25:23.766Z,24.37
2019-02-22T06:27:52.751Z,22.77
2019-02-22T06:30:21.611Z,22.77
2019-02-22T06:32:50.628Z,22.40
2019-02-22T06:35:20.163Z,21.37
2019-02-22T06:37:49.082Z,20.47
2019-02-22T06:40:17.999Z,21.93
2019-02-22T06:42:47.013Z,21.03
2019-02-22T06:45:16.091Z,21.30
2019-02-22T06:47:45.561Z,21.40
2019-02-22T06:50:14.919Z,20.77
2019-02-22T06:52:44.493Z,20.57
2019-02-22T06:55:13.429Z,20.63
2019-02-22T06:57:42.356Z,20.63
2019-02-22T07:00:12.567Z,20.37
2019-02-22T07:02:41.974Z,19.40
2019-02-22T07:05:10.949Z,19.57
2019-02-22T07:07:39.930Z,18.73
2019-02-22T07:10:12.586Z,20.00
2019-02-22T07:12:56.568Z,18.97
2019-02-22T07:15:19.269Z,18.60
2019-02-22T07:17:48.225Z,19.00
2019-02-22T07:20:17.201Z,18.67
2019-02-22T07:22:48.527Z,18.67
2019-02-22T07:25:17.391Z,17.67
2019-02-22T07:27:46.318Z,19.30
2019-02-22T07:30:16.067Z,19.57
2019-02-22T07:32:45.327Z,17.97
2019-02-22T07:35:14.681Z,19.30
2019-02-22T07:37:44.283Z,18.57
2019-02-22T07:40:14.568Z,18.27
2019-02-22T07:42:43.620Z,19.90
2019-02-22T07:45:12.861Z,19.53
2019-02-22T07:47:43.018Z,18.57
2019-02-22T07:50:12.321Z,17.83
2019-02-22T07:52:41.227Z,19.33
2019-02-22T07:55:10.986Z,19.57
2019-02-22T07:57:47.621Z,18.67
2019-02-22T08:00:16.911Z,19.47
2019-02-22T08:02:45.946Z,18.30
2019-02-22T08:05:15.469Z,18.53
2019-02-22T08:07:44.759Z,17.67
2019-02-22T08:10:14.214Z,18.23
2019-02-22T08:12:43.178Z,18.00
2019-02-22T08:15:12.077Z,18.10
2019-02-22T08:17:44.191Z,17.60
2019-02-22T08:20:13.259Z,17.17
2019-02-22T08:22:42.935Z,17.43
2019-02-22T08:25:11.889Z,17.93
2019-02-22T08:27:52.736Z,16.97
2019-02-22T08:30:13.003Z,18.37
2019-02-22T08:32:41.819Z,17.53
2019-02-22T08:35:11.649Z,17.30
2019-02-22T08:37:40.843Z,17.53
2019-02-22T08:40:10.306Z,17.60
2019-02-22T08:42:39.467Z,17.67
2019-02-22T08:45:09.615Z,17.50
2019-02-22T08:47:39.230Z,17.60
2019-02-22T08:50:11.237Z,15.63
2019-02-22T08:52:40.113Z,17.57
2019-02-22T08:55:12.908Z,17.60
2019-02-22T08:57:41.873Z,17.33
2019-02-22T09:00:12.905Z,17.73
2019-02-22T09:02:42.191Z,16.87
2019-02-22T09:05:12.167Z,16.53
2019-02-22T09:07:42.699Z,18.03
2019-02-22T09:10:11.959Z,17.87
2019-02-22T09:12:40.880Z,17.90
2019-02-22T09:15:09.937Z,17.50
2019-02-22T09:17:42.731Z,17.40
2019-02-22T09:20:12.072Z,17.67
2019-02-22T09:22:41.048Z,16.87
2019-02-22T09:25:10.723Z,17.20
2019-02-22T09:27:40.551Z,17.73
2019-02-22T09:30:13.838Z,17.70
2019-02-22T09:32:42.826Z,17.53
2019-02-22T09:35:11.803Z,18.83
2019-02-22T09:37:40.880Z,18.87
2019-02-22T09:40:10.651Z,18.40
2019-02-22T09:42:39.684Z,18.33
2019-02-22T09:45:10.733Z,18.35
2019-02-22T09:47:39.704Z,18.10
2019-02-22T09:50:10.230Z,18.60
2019-02-22T09:52:42.678Z,18.48
2019-02-22T09:55:11.991Z,19.82
2019-02-22T09:57:48.446Z,19.35
2019-02-22T10:00:18.080Z,19.95
2019-02-22T10:02:49.506Z,19.77
2019-02-22T10:05:19.114Z,20.50
2019-02-22T10:07:48.485Z,17.98
2019-02-22T10:10:20.860Z,18.45
2019-02-22T10:12:50.385Z,18.57
2019-02-22T10:15:19.818Z,21.25
2019-02-22T10:17:50.168Z,20.68
2019-02-22T10:20:19.202Z,19.45
2019-02-22T10:22:49.053Z,19.02
2019-02-22T10:25:18.980Z,19.62
2019-02-22T10:27:48.627Z,20.43
2019-02-22T10:30:17.655Z,19.10
2019-02-22T10:32:47.436Z,20.32
2019-02-22T10:35:16.955Z,19.90
2019-02-22T10:37:46.166Z,20.70
2019-02-22T10:40:15.224Z,21.37
2019-02-22T10:42:44.263Z,20.40
2019-02-22T10:45:12.677Z,20.52
2019-02-22T10:47:42.632Z,19.92
2019-02-22T10:50:18.073Z,20.52
2019-02-22T10:53:02.153Z,20.25
2019-02-22T10:55:26.078Z,20.62
2019-02-22T10:57:54.998Z,19.98
2019-02-22T11:00:23.915Z,20.70
2019-02-22T11:02:56.160Z,20.37
2019-02-22T11:05:25.464Z,20.85
2019-02-22T11:07:54.396Z,20.15
2019-02-22T11:10:23.905Z,20.65
2019-02-22T11:12:53.726Z,23.05
2019-02-22T11:15:25.328Z,22.35
2019-02-22T11:17:58.296Z,24.63
2019-02-22T11:20:27.199Z,25.08
2019-02-22T11:23:02.358Z,25.92
2019-02-22T11:25:32.334Z,26.68
2019-02-22T11:28:03.002Z,25.62
2019-02-22T11:30:32.523Z,25.40
2019-02-22T11:33:02.922Z,25.37
2019-02-22T11:35:32.535Z,24.87
2019-02-22T11:38:03.688Z,24.32
2019-02-22T11:40:33.723Z,25.30
2019-02-22T11:43:03.319Z,25.88
2019-02-22T11:45:33.483Z,24.85
2019-02-22T11:48:09.011Z,25.43
2019-02-22T11:50:34.319Z,24.07
2019-02-22T11:53:03.829Z,24.40
2019-02-22T11:55:34.155Z,21.65
2019-02-22T11:58:03.768Z,21.68
2019-02-22T12:00:33.687Z,22.30
2019-02-22T12:03:15.792Z,22.93
2019-02-22T12:05:34.706Z,22.27
2019-02-22T12:08:04.284Z,21.10
2019-02-22T12:10:33.802Z,22.00
2019-02-22T12:13:04.947Z,20.60
2019-02-22T12:15:34.432Z,21.42
2019-02-22T12:18:04.016Z,23.27
2019-02-22T12:20:33.562Z,22.27
2019-02-22T12:23:36.871Z,22.98
2019-02-22T12:26:09.583Z,24.52
2019-02-22T12:28:39.081Z,21.95
2019-02-22T12:31:11.844Z,19.83
2019-02-22T12:33:41.349Z,18.85
2019-02-22T12:36:11.163Z,17.87
2019-02-22T12:38:40.743Z,14.95
2019-02-22T12:41:13.699Z,15.65
2019-02-22T12:43:43.494Z,16.27
2019-02-22T12:46:15.675Z,15.25
2019-02-22T12:48:47.043Z,16.07
2019-02-22T12:51:16.107Z,16.10
2019-02-22T12:53:45.665Z,16.62
2019-02-22T12:56:15.392Z,15.90
2019-02-22T12:58:45.894Z,14.28
2019-02-22T13:01:15.119Z,12.63
2019-02-22T13:03:44.648Z,11.65
2019-02-22T13:06:14.151Z,13.10
2019-02-22T13:08:46.265Z,13.13
2019-02-22T13:11:15.865Z,12.18
2019-02-22T13:13:45.087Z,13.32
2019-02-22T13:16:14.445Z,11.70
2019-02-22T13:18:43.965Z,12.80
2019-02-22T13:21:14.761Z,14.30
2019-02-22T13:23:43.663Z,12.98
2019-02-22T13:26:55.667Z,13.22
2019-02-22T13:29:24.621Z,10.10
2019-02-22T13:31:53.874Z,11.53
2019-02-22T13:36:57.875Z,9.88
2019-02-22T13:39:27.127Z,11.33
2019-02-22T13:41:59.405Z,9.73
2019-02-22T13:44:28.670Z,10.48
2019-02-22T13:46:57.886Z,11.70
2019-02-22T13:49:26.728Z,11.43
2019-02-22T13:51:56.167Z,11.35
2019-02-22T13:54:25.302Z,10.38
2019-02-22T13:56:55.063Z,10.13
2019-02-22T13:59:24.665Z,8.88
2019-02-22T14:01:53.554Z,8.55
2019-02-22T14:04:23.072Z,8.15
2019-02-22T14:06:52.760Z,6.80
2019-02-22T14:09:21.909Z,7.12
2019-02-22T14:11:51.824Z,5.83
2019-02-22T14:14:23.971Z,5.05
2019-02-22T14:16:53.190Z,4.37
2019-02-22T14:19:22.204Z,4.25
2019-02-22T14:22:46.526Z,4.03
2019-02-22T14:25:15.704Z,4.65
2019-02-22T14:27:48.914Z,4.83
2019-02-22T14:30:18.648Z,4.40
2019-02-22T14:32:48.800Z,4.65
2019-02-22T14:35:18.312Z,5.55
2019-02-22T14:37:47.555Z,5.53
2019-02-22T14:40:17.402Z,5.10
2019-02-22T14:42:46.509Z,5.75
2019-02-22T14:45:15.519Z,5.83
2019-02-22T14:47:45.576Z,4.95
2019-02-22T14:50:16.871Z,4.17
2019-02-22T14:52:47.965Z,4.08
2019-02-22T14:55:17.190Z,4.55
2019-02-22T14:57:46.160Z,3.80
2019-02-22T15:00:16.500Z,4.62
2019-02-22T15:02:46.192Z,4.40
2019-02-22T15:05:18.548Z,7.03
2019-02-22T15:07:47.555Z,9.45
2019-02-22T15:10:18.654Z,9.60
2019-02-22T15:12:48.255Z,10.72
2019-02-22T15:15:17.981Z,10.23
2019-02-22T15:17:56.525Z,11.50
2019-02-22T15:20:26.468Z,11.18
2019-02-22T15:23:02.689Z,11.15
2019-02-22T15:25:31.752Z,11.60
2019-02-22T15:28:04.483Z,11.33
2019-02-22T15:30:34.284Z,11.20
2019-02-22T15:33:05.494Z,12.13
2019-02-22T15:35:35.166Z,11.33
2019-02-22T15:38:04.072Z,12.30
2019-02-22T15:40:39.288Z,12.33
2019-02-22T15:43:08.160Z,11.93
2019-02-22T15:45:40.661Z,11.53
2019-02-22T15:48:14.564Z,11.73
2019-02-22T15:50:48.105Z,12.23
2019-02-22T15:53:19.465Z,11.80
2019-02-22T15:55:50.853Z,11.63
2019-02-22T15:58:21.015Z,11.57
2019-02-22T16:00:53.535Z,12.00
2019-02-22T16:03:23.057Z,10.93
2019-02-22T16:05:54.932Z,10.90
2019-02-22T16:08:23.938Z,10.75
2019-02-22T16:10:52.842Z,11.33
2019-02-22T16:13:22.366Z,11.53
2019-02-22T16:15:52.159Z,11.15
2019-02-22T16:18:24.346Z,10.43
2019-02-22T16:20:54.098Z,11.18
2019-02-22T16:23:25.390Z,11.20
2019-02-22T16:26:28.366Z,10.08
2019-02-22T16:28:58.653Z,10.48
2019-02-22T16:31:29.507Z,10.20
2019-02-22T16:33:58.862Z,9.97
2019-02-22T16:36:28.387Z,10.72
2019-02-22T16:38:57.842Z,10.70
2019-02-22T16:41:27.745Z,10.60
2019-02-22T16:44:00.571Z,10.65
2019-02-22T16:46:34.832Z,10.80
2019-02-22T16:49:01.040Z,11.18
2019-02-22T16:51:36.368Z,11.60
2019-02-22T16:54:15.189Z,11.73
2019-02-22T16:56:44.202Z,11.43
2019-02-22T16:59:17.983Z,11.73
2019-02-22T17:01:58.811Z,11.90
2019-02-22T17:04:27.718Z,13.13
2019-02-22T17:06:58.540Z,11.87
2019-02-22T17:09:27.503Z,11.85
2019-02-22T17:12:06.037Z,11.93
2019-02-22T17:14:28.101Z,12.50
2019-02-22T17:16:57.259Z,12.63
2019-02-22T17:19:26.768Z,13.27
2019-02-22T17:22:28.213Z,13.18
2019-02-22T17:24:57.930Z,13.53
2019-02-22T17:27:27.018Z,14.93
2019-02-22T17:30:03.601Z,14.73
2019-02-22T17:32:33.963Z,14.13
2019-02-22T17:35:02.964Z,15.18
2019-02-22T17:37:31.960Z,13.47
2019-02-22T17:40:02.771Z,13.80
2019-02-22T17:42:32.073Z,13.97
2019-02-22T17:45:04.050Z,14.77
2019-02-22T17:47:33.465Z,13.97
2019-02-22T17:50:05.469Z,14.20
2019-02-22T17:52:38.021Z,13.87
2019-02-22T17:55:07.859Z,15.30
2019-02-22T17:57:37.224Z,14.90
2019-02-22T18:00:11.652Z,15.93
2019-02-22T18:02:47.048Z,15.73
2019-02-22T18:05:16.075Z,15.57
2019-02-22T18:07:50.601Z,16.30
2019-02-22T18:10:20.132Z,15.93
2019-02-22T18:12:51.474Z,17.53
2019-02-22T18:15:21.503Z,17.07
2019-02-22T18:17:51.210Z,17.07
2019-02-22T18:20:20.795Z,17.53
2019-02-22T18:22:53.973Z,20.00
2019-02-22T18:25:24.058Z,18.48
2019-02-22T18:27:55.049Z,19.30
2019-02-22T18:30:26.073Z,19.80
2019-02-22T18:32:55.559Z,21.07
2019-02-22T18:35:26.687Z,19.87
2019-02-22T18:37:56.460Z,20.90
2019-02-22T18:40:26.061Z,20.15
2019-02-22T18:42:55.889Z,20.40
2019-02-22T18:45:25.110Z,20.47
2019-02-22T18:47:54.779Z,20.17
2019-02-22T18:50:26.518Z,20.30
2019-02-22T18:53:23.769Z,20.07
2019-02-22T18:55:52.821Z,21.37
2019-02-22T18:58:22.978Z,21.12
2019-02-22T19:00:52.182Z,20.90
2019-02-22T19:03:24.302Z,22.03
2019-02-22T19:05:53.882Z,22.53
2019-02-22T19:08:32.143Z,22.17
2019-02-22T19:10:55.533Z,21.30
2019-02-22T19:13:25.124Z,21.70
2019-02-22T19:15:54.056Z,23.77
2019-02-22T19:18:23.587Z,21.90
2019-02-22T19:20:52.514Z,20.90
2019-02-22T19:23:21.738Z,22.70
2019-02-22T19:25:53.763Z,22.53
2019-02-22T19:28:22.779Z,23.33
2019-02-22T19:30:52.206Z,22.97
2019-02-22T19:33:21.409Z,23.73
2019-02-22T19:35:50.469Z,23.37
2019-02-22T19:38:20.092Z,23.20
2019-02-22T19:40:49.071Z,21.93
2019-02-22T19:43:21.395Z,22.60
2019-02-22T19:45:51.110Z,22.97
2019-02-22T19:48:20.432Z,22.43
2019-02-22T19:50:49.647Z,22.13
2019-02-22T19:56:22.848Z,21.97
2019-02-22T19:58:53.528Z,22.27
2019-02-22T20:01:22.806Z,21.87
2019-02-22T20:03:51.853Z,21.03
2019-02-22T20:06:21.147Z,21.50
2019-02-22T20:08:51.073Z,20.17
2019-02-22T20:11:23.232Z,21.23
2019-02-22T20:13:52.598Z,22.03
2019-02-22T20:16:21.825Z,21.17
2019-02-22T20:18:50.905Z,20.80
2019-02-22T20:21:21.055Z,21.53
2019-02-22T20:23:50.349Z,21.33
2019-02-22T20:26:19.357Z,22.27
2019-02-22T20:28:48.181Z,21.57
2019-02-22T20:31:20.420Z,21.70
2019-02-22T20:33:52.864Z,21.53
2019-02-22T20:36:28.558Z,23.63
2019-02-22T20:38:52.730Z,23.90
2019-02-22T20:41:22.029Z,24.33
2019-02-22T20:43:51.403Z,26.73
2019-02-22T20:46:23.385Z,27.97
2019-02-22T20:49:00.500Z,28.77
2019-02-22T20:51:27.051Z,28.77
2019-02-22T20:53:55.998Z,28.40
2019-02-22T20:56:25.194Z,25.70
2019-02-22T20:58:54.157Z,25.23
2019-02-22T21:01:23.336Z,25.83
2019-02-22T21:03:52.293Z,27.13
2019-02-22T21:06:22.080Z,26.77
2019-02-22T21:08:51.391Z,26.03
2019-02-22T21:11:20.361Z,25.47
2019-02-22T21:13:49.528Z,26.10
2019-02-22T21:16:18.802Z,26.23
2019-02-22T21:18:48.770Z,24.80
2019-02-22T21:21:18.062Z,24.23
2019-02-22T21:23:47.096Z,25.67
2019-02-22T21:26:17.761Z,22.97
2019-02-22T21:28:47.009Z,21.83
2019-02-22T21:31:15.945Z,22.27
2019-02-22T21:33:45.484Z,20.50
2019-02-22T21:36:14.577Z,22.30
2019-02-22T21:38:44.814Z,22.47
2019-02-22T21:41:16.381Z,23.20
2019-02-22T21:46:20.633Z,22.50
2019-02-22T21:48:49.611Z,23.07
2019-02-22T21:51:18.810Z,23.97
2019-02-22T21:53:54.057Z,23.80
2019-02-22T21:56:23.497Z,24.50
2019-02-22T21:58:52.804Z,23.97
2019-02-22T22:01:21.669Z,24.87
2019-02-22T22:03:51.739Z,24.67
2019-02-22T22:06:20.728Z,25.23
2019-02-22T22:08:50.525Z,26.17
2019-02-22T22:11:22.767Z,24.63
2019-02-22T22:13:54.242Z,26.47
2019-02-22T22:16:23.517Z,27.93
2019-02-22T22:18:52.515Z,28.27
2019-02-22T22:21:21.427Z,29.23
2019-02-22T22:23:50.988Z,28.40
2019-02-22T22:26:19.955Z,28.53
2019-02-22T22:28:51.134Z,30.07
2019-02-22T22:31:20.319Z,28.17
2019-02-22T22:33:49.333Z,28.90
2019-02-22T22:36:18.422Z,28.17
2019-02-22T22:38:47.418Z,27.57
2019-02-22T22:41:16.976Z,28.93
2019-02-22T22:43:49.144Z,27.93
2019-02-22T22:46:18.148Z,28.03
2019-02-22T22:55:50.707Z,28.97
2019-02-22T22:58:20.497Z,27.63
2019-02-22T23:01:05.771Z,29.40
2019-02-22T23:03:35.788Z,29.47
2019-02-22T23:06:05.557Z,29.47
2019-02-22T23:08:35.016Z,30.67
2019-02-22T23:11:04.060Z,32.23
2019-02-22T23:13:33.840Z,31.40
2019-02-22T23:16:07.212Z,32.77
2019-02-22T23:18:36.552Z,33.93
2019-02-22T23:21:05.738Z,32.13
2019-02-22T23:23:34.928Z,33.73
2019-02-22T23:28:38.458Z,33.83
2019-02-22T23:31:07.427Z,33.67
2019-02-22T23:33:36.450Z,34.37
2019-02-22T23:36:08.153Z,35.33
2019-02-22T23:38:40.214Z,34.23
2019-02-22T23:41:09.401Z,33.43
2019-02-22T23:43:38.568Z,35.90
2019-02-22T23:46:11.045Z,35.97
2019-02-22T23:48:40.287Z,34.87
2019-02-22T23:51:09.271Z,34.67
2019-02-22T23:53:41.544Z,35.73
2019-02-22T23:56:10.479Z,37.17
2019-02-22T23:58:40.624Z,35.13
